sensor_id;sensor_type;location;lat;lon;timestamp;P1;durP1;ratioP1;P2;durP2;ratioP2
53775;SDS011;44276;49.534;6.378;2023-02-17T00:00:05;8.30;;;5.43;;
53775;SDS011;44276;49.534;6.378;2023-02-17T00:02:36;10.73;;;5.40;;
53775;SDS011;44276;49.534;6.378;2023-02-17T00:05:05;12.82;;;5.97;;
53775;SDS011;44276;49.534;6.378;2023-02-17T00:07:34;10.05;;;5.05;;
53775;SDS011;44276;49.534;6.378;2023-02-17T00:10:02;6.35;;;4.57;;
53775;SDS011;44276;49.534;6.378;2023-02-17T00:12:31;9.02;;;4.72;;
53775;SDS011;44276;49.534;6.378;2023-02-17T00:15:00;9.38;;;5.43;;
53775;SDS011;44276;49.534;6.378;2023-02-17T00:17:28;13.35;;;7.43;;
53775;SDS011;44276;49.534;6.378;2023-02-17T00:19:56;10.30;;;4.70;;
53775;SDS011;44276;49.534;6.378;2023-02-17T00:22:25;10.07;;;4.20;;
53775;SDS011;44276;49.534;6.378;2023-02-17T00:24:53;8.52;;;4.50;;
53775;SDS011;44276;49.534;6.378;2023-02-17T00:27:21;7.57;;;4.85;;
53775;SDS011;44276;49.534;6.378;2023-02-17T00:29:50;8.23;;;4.95;;
53775;SDS011;44276;49.534;6.378;2023-02-17T00:32:19;9.70;;;4.10;;
53775;SDS011;44276;49.534;6.378;2023-02-17T00:34:47;6.88;;;4.57;;
53775;SDS011;44276;49.534;6.378;2023-02-17T00:37:16;7.88;;;4.22;;
53775;SDS011;44276;49.534;6.378;2023-02-17T00:39:44;11.30;;;4.60;;
53775;SDS011;44276;49.534;6.378;2023-02-17T00:42:12;9.20;;;4.93;;
53775;SDS011;44276;49.534;6.378;2023-02-17T00:44:40;8.35;;;4.57;;
53775;SDS011;44276;49.534;6.378;2023-02-17T00:47:08;8.30;;;5.25;;
53775;SDS011;44276;49.534;6.378;2023-02-17T00:49:38;6.70;;;4.63;;
53775;SDS011;44276;49.534;6.378;2023-02-17T00:52:06;7.63;;;4.68;;
53775;SDS011;44276;49.534;6.378;2023-02-17T00:54:34;6.25;;;4.10;;
53775;SDS011;44276;49.534;6.378;2023-02-17T00:57:02;8.35;;;4.75;;
53775;SDS011;44276;49.534;6.378;2023-02-17T00:59:30;8.23;;;5.30;;
53775;SDS011;44276;49.534;6.378;2023-02-17T01:01:58;6.78;;;4.75;;
53775;SDS011;44276;49.534;6.378;2023-02-17T01:04:26;7.18;;;4.45;;
53775;SDS011;44276;49.534;6.378;2023-02-17T01:06:56;5.43;;;3.47;;
53775;SDS011;44276;49.534;6.378;2023-02-17T01:09:24;6.38;;;4.32;;
53775;SDS011;44276;49.534;6.378;2023-02-17T01:11:52;7.28;;;4.50;;
53775;SDS011;44276;49.534;6.378;2023-02-17T01:14:20;6.70;;;4.65;;
53775;SDS011;44276;49.534;6.378;2023-02-17T01:16:48;7.43;;;4.80;;
53775;SDS011;44276;49.534;6.378;2023-02-17T01:19:17;7.68;;;4.25;;
53775;SDS011;44276;49.534;6.378;2023-02-17T01:21:46;10.32;;;4.72;;
53775;SDS011;44276;49.534;6.378;2023-02-17T01:24:15;8.85;;;5.32;;
53775;SDS011;44276;49.534;6.378;2023-02-17T01:26:43;8.57;;;5.10;;
53775;SDS011;44276;49.534;6.378;2023-02-17T01:29:11;8.35;;;3.47;;
53775;SDS011;44276;49.534;6.378;2023-02-17T01:31:39;7.22;;;4.15;;
53775;SDS011;44276;49.534;6.378;2023-02-17T01:34:09;6.03;;;4.03;;
53775;SDS011;44276;49.534;6.378;2023-02-17T01:36:37;10.10;;;4.35;;
53775;SDS011;44276;49.534;6.378;2023-02-17T01:39:06;8.98;;;3.78;;
53775;SDS011;44276;49.534;6.378;2023-02-17T01:41:35;6.55;;;4.30;;
53775;SDS011;44276;49.534;6.378;2023-02-17T01:44:04;6.35;;;4.32;;
53775;SDS011;44276;49.534;6.378;2023-02-17T01:46:42;9.23;;;4.60;;
53775;SDS011;44276;49.534;6.378;2023-02-17T01:49:28;11.18;;;5.18;;
53775;SDS011;44276;49.534;6.378;2023-02-17T01:52:02;6.03;;;4.20;;
53775;SDS011;44276;49.534;6.378;2023-02-17T01:57:10;6.63;;;4.60;;
53775;SDS011;44276;49.534;6.378;2023-02-17T01:59:41;6.40;;;4.07;;
53775;SDS011;44276;49.534;6.378;2023-02-17T02:02:11;4.90;;;3.63;;
53775;SDS011;44276;49.534;6.378;2023-02-17T02:04:40;5.03;;;3.08;;
53775;SDS011;44276;49.534;6.378;2023-02-17T02:07:14;4.55;;;3.40;;
53775;SDS011;44276;49.534;6.378;2023-02-17T02:09:50;6.10;;;3.83;;
53775;SDS011;44276;49.534;6.378;2023-02-17T02:12:23;5.63;;;3.28;;
53775;SDS011;44276;49.534;6.378;2023-02-17T02:14:56;5.38;;;3.53;;
53775;SDS011;44276;49.534;6.378;2023-02-17T02:17:31;4.97;;;3.15;;
53775;SDS011;44276;49.534;6.378;2023-02-17T02:23:42;6.30;;;4.35;;
53775;SDS011;44276;49.534;6.378;2023-02-17T02:29:48;7.03;;;3.55;;
53775;SDS011;44276;49.534;6.378;2023-02-17T02:32:52;7.00;;;3.33;;
53775;SDS011;44276;49.534;6.378;2023-02-17T02:35:33;10.02;;;4.50;;
53775;SDS011;44276;49.534;6.378;2023-02-17T02:38:13;5.95;;;3.33;;
53775;SDS011;44276;49.534;6.378;2023-02-17T02:40:51;6.40;;;4.05;;
53775;SDS011;44276;49.534;6.378;2023-02-17T02:43:29;5.85;;;3.50;;
53775;SDS011;44276;49.534;6.378;2023-02-17T02:45:58;7.95;;;4.78;;
53775;SDS011;44276;49.534;6.378;2023-02-17T02:48:28;8.90;;;4.40;;
53775;SDS011;44276;49.534;6.378;2023-02-17T02:50:59;7.68;;;4.90;;
53775;SDS011;44276;49.534;6.378;2023-02-17T02:53:49;7.05;;;4.82;;
53775;SDS011;44276;49.534;6.378;2023-02-17T02:57:04;8.02;;;4.75;;
53775;SDS011;44276;49.534;6.378;2023-02-17T02:59:56;7.88;;;4.63;;
53775;SDS011;44276;49.534;6.378;2023-02-17T03:02:39;6.68;;;4.68;;
53775;SDS011;44276;49.534;6.378;2023-02-17T03:05:21;6.85;;;4.60;;
53775;SDS011;44276;49.534;6.378;2023-02-17T03:08:00;8.10;;;4.47;;
53775;SDS011;44276;49.534;6.378;2023-02-17T03:10:34;6.97;;;5.03;;
53775;SDS011;44276;49.534;6.378;2023-02-17T03:13:10;10.38;;;4.93;;
53775;SDS011;44276;49.534;6.378;2023-02-17T03:15:38;8.10;;;4.35;;
53775;SDS011;44276;49.534;6.378;2023-02-17T03:18:07;5.10;;;4.03;;
53775;SDS011;44276;49.534;6.378;2023-02-17T03:20:38;7.47;;;4.35;;
53775;SDS011;44276;49.534;6.378;2023-02-17T03:23:11;8.40;;;4.03;;
53775;SDS011;44276;49.534;6.378;2023-02-17T03:25:39;7.97;;;4.65;;
53775;SDS011;44276;49.534;6.378;2023-02-17T03:28:10;10.05;;;3.80;;
53775;SDS011;44276;49.534;6.378;2023-02-17T03:30:38;6.13;;;3.53;;
53775;SDS011;44276;49.534;6.378;2023-02-17T03:33:07;6.85;;;4.20;;
53775;SDS011;44276;49.534;6.378;2023-02-17T03:35:36;7.90;;;4.80;;
53775;SDS011;44276;49.534;6.378;2023-02-17T03:38:04;5.57;;;4.15;;
53775;SDS011;44276;49.534;6.378;2023-02-17T03:40:32;6.80;;;3.80;;
53775;SDS011;44276;49.534;6.378;2023-02-17T03:43:00;7.25;;;4.90;;
53775;SDS011;44276;49.534;6.378;2023-02-17T03:45:29;7.03;;;3.70;;
53775;SDS011;44276;49.534;6.378;2023-02-17T03:47:57;5.72;;;4.38;;
53775;SDS011;44276;49.534;6.378;2023-02-17T03:50:25;5.70;;;3.80;;
53775;SDS011;44276;49.534;6.378;2023-02-17T03:52:55;5.40;;;3.35;;
53775;SDS011;44276;49.534;6.378;2023-02-17T03:55:23;4.82;;;3.63;;
53775;SDS011;44276;49.534;6.378;2023-02-17T03:57:51;4.22;;;3.05;;
53775;SDS011;44276;49.534;6.378;2023-02-17T04:00:19;7.22;;;3.30;;
53775;SDS011;44276;49.534;6.378;2023-02-17T04:02:48;5.88;;;3.42;;
53775;SDS011;44276;49.534;6.378;2023-02-17T04:05:16;5.95;;;3.85;;
53775;SDS011;44276;49.534;6.378;2023-02-17T04:07:44;5.45;;;3.25;;
53775;SDS011;44276;49.534;6.378;2023-02-17T04:10:13;6.75;;;3.88;;
53775;SDS011;44276;49.534;6.378;2023-02-17T04:12:42;5.05;;;3.58;;
53775;SDS011;44276;49.534;6.378;2023-02-17T04:15:10;5.70;;;2.80;;
53775;SDS011;44276;49.534;6.378;2023-02-17T04:17:38;4.90;;;3.08;;
53775;SDS011;44276;49.534;6.378;2023-02-17T04:20:07;6.30;;;3.05;;
53775;SDS011;44276;49.534;6.378;2023-02-17T04:22:36;5.65;;;3.63;;
53775;SDS011;44276;49.534;6.378;2023-02-17T04:25:05;5.15;;;3.50;;
53775;SDS011;44276;49.534;6.378;2023-02-17T04:27:34;5.55;;;3.50;;
53775;SDS011;44276;49.534;6.378;2023-02-17T04:30:03;4.70;;;3.50;;
53775;SDS011;44276;49.534;6.378;2023-02-17T04:32:32;5.78;;;3.03;;
53775;SDS011;44276;49.534;6.378;2023-02-17T04:35:01;3.92;;;2.85;;
53775;SDS011;44276;49.534;6.378;2023-02-17T04:37:29;8.88;;;4.43;;
53775;SDS011;44276;49.534;6.378;2023-02-17T04:39:57;5.88;;;3.30;;
53775;SDS011;44276;49.534;6.378;2023-02-17T04:42:25;6.35;;;4.45;;
53775;SDS011;44276;49.534;6.378;2023-02-17T04:44:54;7.60;;;3.88;;
53775;SDS011;44276;49.534;6.378;2023-02-17T04:47:23;9.70;;;3.50;;
53775;SDS011;44276;49.534;6.378;2023-02-17T04:49:51;8.75;;;4.03;;
53775;SDS011;44276;49.534;6.378;2023-02-17T04:52:19;9.48;;;4.53;;
53775;SDS011;44276;49.534;6.378;2023-02-17T04:54:47;4.40;;;3.42;;
53775;SDS011;44276;49.534;6.378;2023-02-17T04:57:15;9.93;;;5.70;;
53775;SDS011;44276;49.534;6.378;2023-02-17T04:59:43;7.68;;;4.43;;
53775;SDS011;44276;49.534;6.378;2023-02-17T05:02:13;7.05;;;5.10;;
53775;SDS011;44276;49.534;6.378;2023-02-17T05:04:41;7.85;;;4.45;;
53775;SDS011;44276;49.534;6.378;2023-02-17T05:07:11;5.20;;;3.63;;
53775;SDS011;44276;49.534;6.378;2023-02-17T05:09:39;7.30;;;4.60;;
53775;SDS011;44276;49.534;6.378;2023-02-17T05:12:07;7.28;;;4.00;;
53775;SDS011;44276;49.534;6.378;2023-02-17T05:14:35;12.20;;;4.60;;
53775;SDS011;44276;49.534;6.378;2023-02-17T05:17:04;7.38;;;5.00;;
53775;SDS011;44276;49.534;6.378;2023-02-17T05:19:33;8.60;;;5.57;;
53775;SDS011;44276;49.534;6.378;2023-02-17T05:22:02;7.00;;;4.47;;
53775;SDS011;44276;49.534;6.378;2023-02-17T05:24:30;7.47;;;4.82;;
53775;SDS011;44276;49.534;6.378;2023-02-17T05:26:58;6.63;;;4.32;;
53775;SDS011;44276;49.534;6.378;2023-02-17T05:29:26;6.93;;;4.60;;
53775;SDS011;44276;49.534;6.378;2023-02-17T05:31:55;7.45;;;4.97;;
53775;SDS011;44276;49.534;6.378;2023-02-17T05:34:23;7.93;;;5.05;;
53775;SDS011;44276;49.534;6.378;2023-02-17T05:36:52;7.20;;;4.85;;
53775;SDS011;44276;49.534;6.378;2023-02-17T05:39:20;9.32;;;4.68;;
53775;SDS011;44276;49.534;6.378;2023-02-17T05:41:48;5.65;;;3.50;;
53775;SDS011;44276;49.534;6.378;2023-02-17T05:44:16;7.97;;;5.25;;
53775;SDS011;44276;49.534;6.378;2023-02-17T05:46:45;6.78;;;4.35;;
53775;SDS011;44276;49.534;6.378;2023-02-17T05:49:13;7.22;;;4.45;;
53775;SDS011;44276;49.534;6.378;2023-02-17T05:51:41;8.93;;;4.57;;
53775;SDS011;44276;49.534;6.378;2023-02-17T05:54:11;6.65;;;4.93;;
53775;SDS011;44276;49.534;6.378;2023-02-17T05:56:39;7.53;;;5.25;;
53775;SDS011;44276;49.534;6.378;2023-02-17T05:59:07;7.10;;;4.22;;
53775;SDS011;44276;49.534;6.378;2023-02-17T06:01:35;10.98;;;5.68;;
53775;SDS011;44276;49.534;6.378;2023-02-17T06:04:03;8.93;;;5.03;;
53775;SDS011;44276;49.534;6.378;2023-02-17T06:06:32;7.82;;;4.82;;
53775;SDS011;44276;49.534;6.378;2023-02-17T06:09:00;9.00;;;5.40;;
53775;SDS011;44276;49.534;6.378;2023-02-17T06:11:29;8.13;;;5.65;;
53775;SDS011;44276;49.534;6.378;2023-02-17T06:13:58;5.97;;;4.13;;
53775;SDS011;44276;49.534;6.378;2023-02-17T06:16:26;9.15;;;4.57;;
53775;SDS011;44276;49.534;6.378;2023-02-17T06:18:55;9.27;;;6.05;;
53775;SDS011;44276;49.534;6.378;2023-02-17T06:21:25;9.43;;;5.43;;
53775;SDS011;44276;49.534;6.378;2023-02-17T06:23:53;9.73;;;5.05;;
53775;SDS011;44276;49.534;6.378;2023-02-17T06:26:21;8.32;;;5.35;;
53775;SDS011;44276;49.534;6.378;2023-02-17T06:28:50;7.85;;;5.47;;
53775;SDS011;44276;49.534;6.378;2023-02-17T06:31:19;9.00;;;5.13;;
53775;SDS011;44276;49.534;6.378;2023-02-17T06:33:47;7.53;;;5.07;;
53775;SDS011;44276;49.534;6.378;2023-02-17T06:36:15;9.98;;;5.15;;
53775;SDS011;44276;49.534;6.378;2023-02-17T06:38:43;8.80;;;5.57;;
53775;SDS011;44276;49.534;6.378;2023-02-17T06:41:11;9.85;;;7.18;;
53775;SDS011;44276;49.534;6.378;2023-02-17T06:43:39;10.85;;;6.10;;
53775;SDS011;44276;49.534;6.378;2023-02-17T06:46:09;9.45;;;6.72;;
53775;SDS011;44276;49.534;6.378;2023-02-17T06:48:37;11.05;;;6.88;;
53775;SDS011;44276;49.534;6.378;2023-02-17T06:51:05;10.88;;;6.28;;
53775;SDS011;44276;49.534;6.378;2023-02-17T06:53:33;11.93;;;7.43;;
53775;SDS011;44276;49.534;6.378;2023-02-17T06:56:01;9.82;;;6.80;;
53775;SDS011;44276;49.534;6.378;2023-02-17T06:58:31;11.00;;;7.18;;
53775;SDS011;44276;49.534;6.378;2023-02-17T07:01:00;11.05;;;6.70;;
53775;SDS011;44276;49.534;6.378;2023-02-17T07:03:31;12.38;;;6.53;;
53775;SDS011;44276;49.534;6.378;2023-02-17T07:05:59;12.05;;;7.07;;
53775;SDS011;44276;49.534;6.378;2023-02-17T07:08:27;12.40;;;7.00;;
53775;SDS011;44276;49.534;6.378;2023-02-17T07:10:58;14.35;;;7.28;;
53775;SDS011;44276;49.534;6.378;2023-02-17T07:13:26;9.90;;;6.07;;
53775;SDS011;44276;49.534;6.378;2023-02-17T07:15:54;16.45;;;7.85;;
53775;SDS011;44276;49.534;6.378;2023-02-17T07:18:22;13.35;;;6.97;;
53775;SDS011;44276;49.534;6.378;2023-02-17T07:20:51;12.40;;;7.95;;
53775;SDS011;44276;49.534;6.378;2023-02-17T07:23:19;10.85;;;7.47;;
53775;SDS011;44276;49.534;6.378;2023-02-17T07:25:48;13.20;;;7.35;;
53775;SDS011;44276;49.534;6.378;2023-02-17T07:28:16;10.80;;;7.45;;
53775;SDS011;44276;49.534;6.378;2023-02-17T07:30:44;12.63;;;7.68;;
53775;SDS011;44276;49.534;6.378;2023-02-17T07:33:12;10.57;;;6.25;;
53775;SDS011;44276;49.534;6.378;2023-02-17T07:35:40;10.63;;;6.38;;
53775;SDS011;44276;49.534;6.378;2023-02-17T07:38:11;13.90;;;7.63;;
53775;SDS011;44276;49.534;6.378;2023-02-17T07:40:39;12.30;;;6.65;;
53775;SDS011;44276;49.534;6.378;2023-02-17T07:43:07;10.60;;;5.90;;
53775;SDS011;44276;49.534;6.378;2023-02-17T07:45:35;11.23;;;6.13;;
53775;SDS011;44276;49.534;6.378;2023-02-17T07:48:04;15.68;;;8.02;;
53775;SDS011;44276;49.534;6.378;2023-02-17T07:50:32;10.05;;;6.40;;
53775;SDS011;44276;49.534;6.378;2023-02-17T07:53:00;11.52;;;7.50;;
53775;SDS011;44276;49.534;6.378;2023-02-17T07:55:30;10.48;;;7.13;;
53775;SDS011;44276;49.534;6.378;2023-02-17T07:57:58;10.57;;;7.25;;
53775;SDS011;44276;49.534;6.378;2023-02-17T08:00:26;10.50;;;6.32;;
53775;SDS011;44276;49.534;6.378;2023-02-17T08:02:54;11.52;;;7.13;;
53775;SDS011;44276;49.534;6.378;2023-02-17T08:05:23;11.98;;;7.05;;
53775;SDS011;44276;49.534;6.378;2023-02-17T08:07:51;15.65;;;7.80;;
53775;SDS011;44276;49.534;6.378;2023-02-17T08:10:40;11.13;;;6.28;;
53775;SDS011;44276;49.534;6.378;2023-02-17T08:13:26;14.57;;;7.93;;
53775;SDS011;44276;49.534;6.378;2023-02-17T08:15:54;14.48;;;8.23;;
53775;SDS011;44276;49.534;6.378;2023-02-17T08:18:22;15.82;;;8.48;;
53775;SDS011;44276;49.534;6.378;2023-02-17T08:20:51;13.10;;;7.55;;
53775;SDS011;44276;49.534;6.378;2023-02-17T08:23:19;13.23;;;8.20;;
53775;SDS011;44276;49.534;6.378;2023-02-17T08:25:49;16.67;;;10.13;;
53775;SDS011;44276;49.534;6.378;2023-02-17T08:28:17;17.23;;;9.10;;
53775;SDS011;44276;49.534;6.378;2023-02-17T08:30:47;15.85;;;7.50;;
53775;SDS011;44276;49.534;6.378;2023-02-17T08:33:15;11.60;;;6.82;;
53775;SDS011;44276;49.534;6.378;2023-02-17T08:35:44;10.52;;;6.20;;
53775;SDS011;44276;49.534;6.378;2023-02-17T08:38:12;14.65;;;8.02;;
53775;SDS011;44276;49.534;6.378;2023-02-17T08:40:40;10.95;;;6.22;;
53775;SDS011;44276;49.534;6.378;2023-02-17T08:43:10;9.90;;;5.50;;
53775;SDS011;44276;49.534;6.378;2023-02-17T08:45:38;8.85;;;6.30;;
53775;SDS011;44276;49.534;6.378;2023-02-17T08:48:06;9.18;;;5.90;;
53775;SDS011;44276;49.534;6.378;2023-02-17T08:50:35;6.72;;;4.50;;
53775;SDS011;44276;49.534;6.378;2023-02-17T08:53:03;9.27;;;4.20;;
53775;SDS011;44276;49.534;6.378;2023-02-17T08:55:31;6.68;;;3.65;;
53775;SDS011;44276;49.534;6.378;2023-02-17T08:58:15;10.35;;;5.47;;
53775;SDS011;44276;49.534;6.378;2023-02-17T09:00:43;7.60;;;4.90;;
53775;SDS011;44276;49.534;6.378;2023-02-17T09:03:11;6.97;;;4.47;;
53775;SDS011;44276;49.534;6.378;2023-02-17T09:05:39;9.35;;;4.60;;
53775;SDS011;44276;49.534;6.378;2023-02-17T09:08:08;8.57;;;4.45;;
53775;SDS011;44276;49.534;6.378;2023-02-17T09:10:37;6.55;;;3.47;;
53775;SDS011;44276;49.534;6.378;2023-02-17T09:13:05;5.68;;;3.17;;
53775;SDS011;44276;49.534;6.378;2023-02-17T09:15:34;3.80;;;2.78;;
53775;SDS011;44276;49.534;6.378;2023-02-17T09:18:03;5.40;;;3.60;;
53775;SDS011;44276;49.534;6.378;2023-02-17T09:20:31;4.90;;;2.70;;
53775;SDS011;44276;49.534;6.378;2023-02-17T09:22:59;5.63;;;3.35;;
53775;SDS011;44276;49.534;6.378;2023-02-17T09:25:27;7.20;;;3.90;;
53775;SDS011;44276;49.534;6.378;2023-02-17T09:27:55;7.18;;;3.13;;
53775;SDS011;44276;49.534;6.378;2023-02-17T09:30:25;7.88;;;2.88;;
53775;SDS011;44276;49.534;6.378;2023-02-17T09:32:55;6.50;;;2.45;;
53775;SDS011;44276;49.534;6.378;2023-02-17T09:35:24;6.13;;;3.35;;
53775;SDS011;44276;49.534;6.378;2023-02-17T09:37:53;8.25;;;3.75;;
53775;SDS011;44276;49.534;6.378;2023-02-17T09:40:22;4.13;;;3.05;;
53775;SDS011;44276;49.534;6.378;2023-02-17T09:43:05;4.07;;;3.03;;
53775;SDS011;44276;49.534;6.378;2023-02-17T09:45:39;5.80;;;2.95;;
53775;SDS011;44276;49.534;6.378;2023-02-17T09:48:14;3.40;;;2.70;;
53775;SDS011;44276;49.534;6.378;2023-02-17T09:50:48;6.55;;;4.45;;
53775;SDS011;44276;49.534;6.378;2023-02-17T09:53:23;3.15;;;2.38;;
53775;SDS011;44276;49.534;6.378;2023-02-17T09:56:02;5.38;;;3.10;;
53775;SDS011;44276;49.534;6.378;2023-02-17T09:58:37;4.00;;;2.83;;
53775;SDS011;44276;49.534;6.378;2023-02-17T10:01:10;3.85;;;2.67;;
53775;SDS011;44276;49.534;6.378;2023-02-17T10:03:47;3.30;;;2.70;;
53775;SDS011;44276;49.534;6.378;2023-02-17T10:06:22;3.60;;;2.17;;
53775;SDS011;44276;49.534;6.378;2023-02-17T10:08:56;3.38;;;2.17;;
53775;SDS011;44276;49.534;6.378;2023-02-17T10:11:31;4.20;;;2.38;;
53775;SDS011;44276;49.534;6.378;2023-02-17T10:14:14;3.35;;;2.13;;
53775;SDS011;44276;49.534;6.378;2023-02-17T10:16:52;5.97;;;2.17;;
53775;SDS011;44276;49.534;6.378;2023-02-17T10:19:33;4.38;;;2.55;;
53775;SDS011;44276;49.534;6.378;2023-02-17T10:22:12;2.17;;;1.90;;
53775;SDS011;44276;49.534;6.378;2023-02-17T10:24:44;3.88;;;1.77;;
53775;SDS011;44276;49.534;6.378;2023-02-17T10:27:22;4.13;;;1.85;;
53775;SDS011;44276;49.534;6.378;2023-02-17T10:33:00;2.45;;;1.75;;
53775;SDS011;44276;49.534;6.378;2023-02-17T10:35:42;2.15;;;1.80;;
53775;SDS011;44276;49.534;6.378;2023-02-17T10:38:24;1.95;;;1.48;;
53775;SDS011;44276;49.534;6.378;2023-02-17T10:41:10;2.67;;;1.73;;
53775;SDS011;44276;49.534;6.378;2023-02-17T10:43:43;2.80;;;2.03;;
53775;SDS011;44276;49.534;6.378;2023-02-17T10:46:13;3.53;;;1.67;;
53775;SDS011;44276;49.534;6.378;2023-02-17T10:48:46;1.90;;;1.42;;
53775;SDS011;44276;49.534;6.378;2023-02-17T10:51:19;1.80;;;1.52;;
53775;SDS011;44276;49.534;6.378;2023-02-17T10:53:53;3.45;;;1.23;;
53775;SDS011;44276;49.534;6.378;2023-02-17T10:56:31;3.17;;;1.67;;
53775;SDS011;44276;49.534;6.378;2023-02-17T10:59:05;3.45;;;1.30;;
53775;SDS011;44276;49.534;6.378;2023-02-17T11:01:43;1.65;;;1.33;;
53775;SDS011;44276;49.534;6.378;2023-02-17T11:04:12;1.23;;;0.90;;
53775;SDS011;44276;49.534;6.378;2023-02-17T11:06:42;2.67;;;1.13;;
53775;SDS011;44276;49.534;6.378;2023-02-17T11:09:17;2.10;;;1.30;;
53775;SDS011;44276;49.534;6.378;2023-02-17T11:11:57;1.80;;;1.33;;
53775;SDS011;44276;49.534;6.378;2023-02-17T11:14:30;1.52;;;0.98;;
53775;SDS011;44276;49.534;6.378;2023-02-17T11:17:03;1.60;;;1.15;;
53775;SDS011;44276;49.534;6.378;2023-02-17T11:19:53;4.53;;;1.80;;
53775;SDS011;44276;49.534;6.378;2023-02-17T11:22:32;2.72;;;1.35;;
53775;SDS011;44276;49.534;6.378;2023-02-17T11:25:06;3.38;;;1.38;;
53775;SDS011;44276;49.534;6.378;2023-02-17T11:27:49;2.38;;;1.23;;
53775;SDS011;44276;49.534;6.378;2023-02-17T11:30:18;1.70;;;1.17;;
53775;SDS011;44276;49.534;6.378;2023-02-17T11:32:47;3.03;;;1.60;;
53775;SDS011;44276;49.534;6.378;2023-02-17T11:35:20;1.35;;;1.13;;
53775;SDS011;44276;49.534;6.378;2023-02-17T11:38:00;1.33;;;1.10;;
53775;SDS011;44276;49.534;6.378;2023-02-17T11:40:37;3.05;;;1.25;;
53775;SDS011;44276;49.534;6.378;2023-02-17T11:43:05;4.55;;;1.25;;
53775;SDS011;44276;49.534;6.378;2023-02-17T11:45:35;2.20;;;1.15;;
53775;SDS011;44276;49.534;6.378;2023-02-17T11:48:21;1.90;;;1.20;;
53775;SDS011;44276;49.534;6.378;2023-02-17T11:51:11;3.85;;;1.35;;
53775;SDS011;44276;49.534;6.378;2023-02-17T11:53:51;1.42;;;1.17;;
53775;SDS011;44276;49.534;6.378;2023-02-17T11:56:32;3.78;;;1.00;;
53775;SDS011;44276;49.534;6.378;2023-02-17T11:59:16;1.75;;;1.35;;
53775;SDS011;44276;49.534;6.378;2023-02-17T12:02:17;2.03;;;1.08;;
53775;SDS011;44276;49.534;6.378;2023-02-17T12:05:10;1.67;;;1.05;;
53775;SDS011;44276;49.534;6.378;2023-02-17T12:07:57;1.20;;;1.00;;
53775;SDS011;44276;49.534;6.378;2023-02-17T12:10:47;2.17;;;1.05;;
53775;SDS011;44276;49.534;6.378;2023-02-17T12:13:34;1.23;;;0.88;;
53775;SDS011;44276;49.534;6.378;2023-02-17T12:16:25;1.83;;;1.08;;
53775;SDS011;44276;49.534;6.378;2023-02-17T12:21:56;1.73;;;1.05;;
53775;SDS011;44276;49.534;6.378;2023-02-17T12:24:39;1.65;;;1.10;;
53775;SDS011;44276;49.534;6.378;2023-02-17T12:27:32;2.38;;;1.10;;
53775;SDS011;44276;49.534;6.378;2023-02-17T12:30:22;2.13;;;1.40;;
53775;SDS011;44276;49.534;6.378;2023-02-17T12:33:08;1.15;;;1.00;;
53775;SDS011;44276;49.534;6.378;2023-02-17T12:35:57;9.25;;;1.58;;
53775;SDS011;44276;49.534;6.378;2023-02-17T12:38:33;1.77;;;1.03;;
53775;SDS011;44276;49.534;6.378;2023-02-17T12:41:08;2.08;;;0.95;;
53775;SDS011;44276;49.534;6.378;2023-02-17T12:43:44;1.63;;;1.13;;
53775;SDS011;44276;49.534;6.378;2023-02-17T12:46:18;1.45;;;1.17;;
53775;SDS011;44276;49.534;6.378;2023-02-17T12:48:54;2.78;;;2.00;;
53775;SDS011;44276;49.534;6.378;2023-02-17T12:51:33;2.58;;;1.70;;
53775;SDS011;44276;49.534;6.378;2023-02-17T12:54:10;2.83;;;1.60;;
53775;SDS011;44276;49.534;6.378;2023-02-17T12:56:58;2.28;;;1.80;;
53775;SDS011;44276;49.534;6.378;2023-02-17T12:59:40;2.65;;;1.38;;
53775;SDS011;44276;49.534;6.378;2023-02-17T13:02:12;2.45;;;1.33;;
53775;SDS011;44276;49.534;6.378;2023-02-17T13:04:43;2.15;;;1.40;;
53775;SDS011;44276;49.534;6.378;2023-02-17T13:07:21;3.03;;;1.88;;
53775;SDS011;44276;49.534;6.378;2023-02-17T13:10:19;2.45;;;1.42;;
53775;SDS011;44276;49.534;6.378;2023-02-17T13:12:59;2.28;;;1.38;;
53775;SDS011;44276;49.534;6.378;2023-02-17T13:15:34;2.28;;;2.08;;
53775;SDS011;44276;49.534;6.378;2023-02-17T13:18:10;2.83;;;1.27;;
53775;SDS011;44276;49.534;6.378;2023-02-17T13:20:42;1.98;;;1.20;;
53775;SDS011;44276;49.534;6.378;2023-02-17T13:23:34;1.67;;;1.20;;
53775;SDS011;44276;49.534;6.378;2023-02-17T13:26:13;1.50;;;1.38;;
53775;SDS011;44276;49.534;6.378;2023-02-17T13:29:08;2.08;;;1.65;;
53775;SDS011;44276;49.534;6.378;2023-02-17T13:32:03;2.03;;;1.15;;
53775;SDS011;44276;49.534;6.378;2023-02-17T13:34:36;2.30;;;1.55;;
53775;SDS011;44276;49.534;6.378;2023-02-17T13:37:16;1.65;;;1.13;;
53775;SDS011;44276;49.534;6.378;2023-02-17T13:39:53;2.10;;;1.08;;
53775;SDS011;44276;49.534;6.378;2023-02-17T13:42:31;2.15;;;1.52;;
53775;SDS011;44276;49.534;6.378;2023-02-17T13:45:10;2.67;;;1.63;;
53775;SDS011;44276;49.534;6.378;2023-02-17T13:47:49;3.20;;;1.42;;
53775;SDS011;44276;49.534;6.378;2023-02-17T13:50:27;2.35;;;1.52;;
53775;SDS011;44276;49.534;6.378;2023-02-17T13:52:59;5.10;;;1.95;;
53775;SDS011;44276;49.534;6.378;2023-02-17T13:55:29;2.13;;;1.42;;
53775;SDS011;44276;49.534;6.378;2023-02-17T13:57:58;5.07;;;2.05;;
53775;SDS011;44276;49.534;6.378;2023-02-17T14:00:27;1.83;;;1.23;;
53775;SDS011;44276;49.534;6.378;2023-02-17T14:03:00;3.47;;;1.38;;
53775;SDS011;44276;49.534;6.378;2023-02-17T14:05:43;6.47;;;1.60;;
53775;SDS011;44276;49.534;6.378;2023-02-17T14:08:16;2.63;;;1.40;;
53775;SDS011;44276;49.534;6.378;2023-02-17T14:10:53;2.45;;;1.90;;
53775;SDS011;44276;49.534;6.378;2023-02-17T14:13:22;2.53;;;1.75;;
53775;SDS011;44276;49.534;6.378;2023-02-17T14:15:52;2.78;;;1.77;;
53775;SDS011;44276;49.534;6.378;2023-02-17T14:18:27;3.10;;;2.20;;
53775;SDS011;44276;49.534;6.378;2023-02-17T14:21:01;2.78;;;2.05;;
53775;SDS011;44276;49.534;6.378;2023-02-17T14:23:40;4.45;;;1.95;;
53775;SDS011;44276;49.534;6.378;2023-02-17T14:26:13;1.75;;;1.25;;
53775;SDS011;44276;49.534;6.378;2023-02-17T14:28:54;3.00;;;1.50;;
53775;SDS011;44276;49.534;6.378;2023-02-17T14:31:25;2.40;;;1.33;;
53775;SDS011;44276;49.534;6.378;2023-02-17T14:33:57;4.65;;;1.90;;
53775;SDS011;44276;49.534;6.378;2023-02-17T14:36:28;5.95;;;1.70;;
53775;SDS011;44276;49.534;6.378;2023-02-17T14:39:03;1.90;;;1.40;;
53775;SDS011;44276;49.534;6.378;2023-02-17T14:41:34;2.83;;;1.80;;
53775;SDS011;44276;49.534;6.378;2023-02-17T14:44:02;4.25;;;1.80;;
53775;SDS011;44276;49.534;6.378;2023-02-17T14:46:31;3.30;;;1.95;;
53775;SDS011;44276;49.534;6.378;2023-02-17T14:49:01;2.70;;;1.50;;
53775;SDS011;44276;49.534;6.378;2023-02-17T14:51:31;4.50;;;1.70;;
53775;SDS011;44276;49.534;6.378;2023-02-17T14:54:02;2.80;;;1.50;;
53775;SDS011;44276;49.534;6.378;2023-02-17T14:56:37;2.75;;;1.95;;
53775;SDS011;44276;49.534;6.378;2023-02-17T14:59:13;4.93;;;2.20;;
53775;SDS011;44276;49.534;6.378;2023-02-17T15:01:41;2.70;;;1.48;;
53775;SDS011;44276;49.534;6.378;2023-02-17T15:04:10;5.97;;;1.92;;
53775;SDS011;44276;49.534;6.378;2023-02-17T15:06:39;2.70;;;1.65;;
53775;SDS011;44276;49.534;6.378;2023-02-17T15:09:12;2.20;;;1.75;;
53775;SDS011;44276;49.534;6.378;2023-02-17T15:11:42;3.38;;;1.95;;
53775;SDS011;44276;49.534;6.378;2023-02-17T15:14:14;3.25;;;1.70;;
53775;SDS011;44276;49.534;6.378;2023-02-17T15:16:45;3.15;;;1.85;;
53775;SDS011;44276;49.534;6.378;2023-02-17T15:19:16;3.38;;;1.48;;
53775;SDS011;44276;49.534;6.378;2023-02-17T15:21:45;5.72;;;1.95;;
53775;SDS011;44276;49.534;6.378;2023-02-17T15:24:18;3.63;;;1.85;;
53775;SDS011;44276;49.534;6.378;2023-02-17T15:26:53;2.43;;;1.50;;
53775;SDS011;44276;49.534;6.378;2023-02-17T15:29:22;3.42;;;2.15;;
53775;SDS011;44276;49.534;6.378;2023-02-17T15:31:52;4.90;;;2.58;;